Mary K Cavarra — WDB9000 — position and weather

sailwx.info

Track history (hours):
 
Tides and Currents Weather Stations Pressure Air Temp Water Temp Dewpoint Dewpoint Depression Visibility Wind Speed Wind Dir Waves Ship Positions

Mary K Cavarra

Owner: INGRAM BARGE COMPANY, Nashville, TN. More information available from US FCC via Universal Licensing System and Coast Guard Vessel Documentation Center.

Last reported at 2017-Jun-23 16:06 UTC. Time now 2017-Jun-26 17:36 UTC.
Position N 40°42' W 091°07'.

Length 52 m; draft 2.7 m.

Type: Towing. MMSI: 366967650.

Date/timePositionNaut miles runAvg speedWind from/ knotsBaromVisibWave heightAir tempDewpointWater temp
2017-Jun-23 16:06N 40°42' W 091°07'0 5.5
2017-Jun-23 16:01N 40°42' W 091°07'3 5.2
2017-Jun-23 15:21N 40°46' W 091°06'2 5.6
2017-Jun-23 15:00N 40°47' W 091°06'1 2.8
2017-Jun-23 14:30N 40°49' W 091°06'5 5.1
2017-Jun-23 13:31N 40°53' W 091°02'0 0.4
2017-Jun-23 13:00N 40°53' W 091°01'0 0.2
2017-Jun-23 12:30N 40°53' W 091°01'0 0.0
2017-Jun-23 12:00N 40°53' W 091°01'0 0.8
2017-Jun-23 11:30N 40°53' W 091°01'0 0.0
2017-Jun-23 11:00N 40°53' W 091°01'0 0.1
2017-Jun-23 10:31N 40°53' W 091°01'2 3.7
2017-Jun-23 10:00N 40°55' W 090°59'3 5.0
2017-Jun-23 09:30N 40°57' W 090°57'3 5.4
2017-Jun-23 09:00N 40°59' W 090°57'4 5.5
2017-Jun-23 08:18N 41°03' W 090°57'  
Track history (hours):
 
Tides and Currents Weather Stations Pressure Air Temp Water Temp Dewpoint Dewpoint Depression Visibility Wind Speed Wind Dir Waves Ship Positions

Mary K Cavarra

Owner: INGRAM BARGE COMPANY, Nashville, TN. More information available from US FCC via Universal Licensing System and Coast Guard Vessel Documentation Center.

Last reported at 2017-Jun-23 16:06 UTC. Time now 2017-Jun-26 17:36 UTC.
Position N 40°42' W 091°07'.

Length 52 m; draft 2.7 m.

Type: Towing. MMSI: 366967650.

Date/timePositionNaut miles runAvg speedWind from/ knotsBaromVisibWave heightAir tempDewpointWater temp
2017-Jun-23 16:06N 40°42' W 091°07'0 5.5
2017-Jun-23 16:01N 40°42' W 091°07'3 5.2
2017-Jun-23 15:21N 40°46' W 091°06'2 5.6
2017-Jun-23 15:00N 40°47' W 091°06'1 2.8
2017-Jun-23 14:30N 40°49' W 091°06'5 5.1
2017-Jun-23 13:31N 40°53' W 091°02'0 0.4
2017-Jun-23 13:00N 40°53' W 091°01'0 0.2
2017-Jun-23 12:30N 40°53' W 091°01'0 0.0
2017-Jun-23 12:00N 40°53' W 091°01'0 0.8
2017-Jun-23 11:30N 40°53' W 091°01'0 0.0
2017-Jun-23 11:00N 40°53' W 091°01'0 0.1
2017-Jun-23 10:31N 40°53' W 091°01'2 3.7
2017-Jun-23 10:00N 40°55' W 090°59'3 5.0
2017-Jun-23 09:30N 40°57' W 090°57'3 5.4
2017-Jun-23 09:00N 40°59' W 090°57'4 5.5
2017-Jun-23 08:18N 41°03' W 090°57'  

Dump ship's entire track history